createdAt,value
2017-09-16T00:00:28.717Z,18.40
2017-09-16T00:01:28.711Z,15.10
2017-09-16T00:02:28.707Z,13.90
2017-09-16T00:03:28.701Z,16.80
2017-09-16T00:04:28.695Z,17.10
2017-09-16T00:05:28.691Z,13.40
2017-09-16T00:06:28.686Z,17.80
2017-09-16T00:07:28.680Z,12.80
2017-09-16T00:08:28.675Z,15.80
2017-09-16T00:09:28.670Z,21.40
2017-09-16T00:10:28.664Z,14.30
2017-09-16T00:11:28.659Z,14.40
2017-09-16T00:12:28.653Z,16.70
2017-09-16T00:13:28.649Z,14.30
2017-09-16T00:14:28.644Z,16.30
2017-09-16T00:15:28.638Z,17.40
2017-09-16T00:16:28.632Z,14.00
2017-09-16T00:17:28.628Z,12.90
2017-09-16T00:18:28.624Z,18.10
2017-09-16T00:19:28.620Z,17.00
2017-09-16T00:20:28.612Z,14.40
2017-09-16T00:21:28.606Z,13.90
2017-09-16T00:22:28.601Z,19.20
2017-09-16T00:23:28.595Z,17.10
2017-09-16T00:24:28.590Z,14.90
2017-09-16T00:25:28.586Z,13.80
2017-09-16T00:26:28.580Z,14.10
2017-09-16T00:27:28.575Z,18.20
2017-09-16T00:28:28.570Z,14.60
2017-09-16T00:29:28.566Z,16.10
2017-09-16T00:30:28.561Z,13.10
2017-09-16T00:31:28.554Z,14.90
2017-09-16T00:32:28.548Z,14.90
2017-09-16T00:33:28.545Z,15.30
2017-09-16T00:34:28.540Z,16.40
2017-09-16T00:35:28.532Z,15.70
2017-09-16T00:36:28.528Z,15.50
2017-09-16T00:37:28.524Z,12.20
2017-09-16T00:38:28.518Z,16.60
2017-09-16T00:39:28.514Z,16.40
2017-09-16T00:40:28.507Z,18.50
2017-09-16T00:41:28.503Z,17.20
2017-09-16T00:42:28.497Z,12.80
2017-09-16T00:43:28.494Z,13.30
2017-09-16T00:44:28.487Z,16.40
2017-09-16T00:45:28.481Z,14.30
2017-09-16T00:46:28.479Z,12.80
2017-09-16T00:47:28.469Z,14.90
2017-09-16T00:48:28.466Z,16.10
2017-09-16T00:49:28.461Z,18.90
2017-09-16T00:50:28.454Z,16.30
2017-09-16T00:51:28.450Z,13.30
2017-09-16T00:52:28.445Z,17.50
2017-09-16T00:53:28.442Z,13.10
2017-09-16T00:54:28.435Z,12.70
2017-09-16T00:55:28.429Z,14.60
2017-09-16T00:56:28.424Z,18.60
2017-09-16T00:57:28.419Z,13.40
2017-09-16T00:58:28.414Z,13.50
2017-09-16T00:59:28.407Z,12.20
2017-09-16T01:00:28.403Z,15.40
2017-09-16T01:01:28.398Z,15.70
2017-09-16T01:02:28.393Z,16.10
2017-09-16T01:03:28.387Z,15.30
2017-09-16T01:04:28.385Z,15.10
2017-09-16T01:05:28.376Z,12.40
2017-09-16T01:06:28.372Z,12.60
2017-09-16T01:07:28.366Z,13.10
2017-09-16T01:08:28.361Z,16.10
2017-09-16T01:09:28.355Z,15.80
2017-09-16T01:10:28.350Z,13.10
2017-09-16T01:11:28.345Z,11.50
2017-09-16T01:12:28.339Z,15.60
2017-09-16T01:13:28.335Z,14.30
2017-09-16T01:14:28.330Z,13.60
2017-09-16T01:15:28.323Z,18.00
2017-09-16T01:16:28.318Z,15.60
2017-09-16T01:17:28.314Z,15.90
2017-09-16T01:18:28.307Z,16.40
2017-09-16T01:19:28.303Z,12.30
2017-09-16T01:20:28.295Z,17.60
2017-09-16T01:21:28.291Z,15.00
2017-09-16T01:22:28.285Z,15.50
2017-09-16T01:23:28.281Z,12.70
2017-09-16T01:24:28.275Z,15.70
2017-09-16T01:25:28.271Z,16.70
2017-09-16T01:26:28.265Z,15.90
2017-09-16T01:27:28.258Z,18.70
2017-09-16T01:28:28.255Z,15.60
2017-09-16T01:29:28.249Z,16.60
2017-09-16T01:30:28.244Z,12.80
2017-09-16T01:31:28.237Z,12.90
2017-09-16T01:32:28.233Z,13.60
2017-09-16T01:33:28.228Z,16.20
2017-09-16T01:34:28.222Z,19.10
2017-09-16T01:35:28.217Z,17.00
2017-09-16T01:36:28.211Z,17.90
2017-09-16T01:37:28.206Z,17.30
2017-09-16T01:38:28.200Z,15.50
2017-09-16T01:39:28.194Z,20.20
2017-09-16T01:40:28.189Z,13.40
2017-09-16T01:41:28.185Z,15.20
2017-09-16T01:42:28.179Z,15.00
2017-09-16T01:43:28.173Z,17.80
2017-09-16T01:44:28.166Z,15.30
2017-09-16T01:45:28.162Z,15.20
2017-09-16T01:46:28.158Z,13.20
2017-09-16T01:47:28.151Z,15.00
2017-09-16T01:48:28.146Z,13.10
2017-09-16T01:49:28.141Z,16.00
2017-09-16T01:50:28.136Z,14.70
2017-09-16T01:51:28.129Z,13.60
2017-09-16T01:52:28.124Z,14.10
2017-09-16T01:53:28.119Z,12.70
2017-09-16T01:54:28.114Z,13.70
2017-09-16T01:55:28.107Z,11.30
2017-09-16T01:56:28.101Z,14.90
2017-09-16T01:57:28.095Z,13.80
2017-09-16T01:58:28.092Z,16.80
2017-09-16T01:59:28.084Z,13.20
2017-09-16T02:00:28.080Z,13.50
2017-09-16T02:01:28.075Z,14.80
2017-09-16T02:02:28.069Z,15.00
2017-09-16T02:03:28.064Z,22.40
2017-09-16T02:04:28.058Z,14.20
2017-09-16T02:05:28.052Z,14.60
2017-09-16T02:06:28.048Z,15.40
2017-09-16T02:07:28.040Z,14.10
2017-09-16T02:08:28.035Z,15.50
2017-09-16T02:09:28.030Z,14.90
2017-09-16T02:10:28.026Z,12.80
2017-09-16T02:11:28.018Z,14.10
2017-09-16T02:12:28.014Z,14.30
2017-09-16T02:13:28.008Z,17.30
2017-09-16T02:14:28.003Z,20.60
2017-09-16T02:15:27.997Z,14.80
2017-09-16T02:16:27.990Z,15.10
2017-09-16T02:17:27.985Z,12.70
2017-09-16T02:18:27.983Z,14.50
2017-09-16T02:19:27.973Z,13.70
2017-09-16T02:20:27.968Z,14.30
2017-09-16T02:21:27.964Z,16.90
2017-09-16T02:22:27.957Z,11.30
2017-09-16T02:23:27.952Z,13.70
2017-09-16T02:24:27.950Z,16.20
2017-09-16T02:25:27.940Z,15.30
2017-09-16T02:26:27.938Z,15.80
2017-09-16T02:27:27.928Z,14.70
2017-09-16T02:28:27.923Z,17.00
2017-09-16T02:29:27.918Z,12.90
2017-09-16T02:30:27.913Z,17.70
2017-09-16T02:31:27.905Z,16.00
2017-09-16T02:32:27.901Z,15.80
2017-09-16T02:33:27.895Z,15.00
2017-09-16T02:34:27.892Z,17.80
2017-09-16T02:35:27.884Z,15.70
2017-09-16T02:36:27.879Z,15.60
2017-09-16T02:37:27.872Z,16.40
2017-09-16T02:38:27.865Z,14.50
2017-09-16T02:39:27.861Z,15.50
2017-09-16T02:40:27.856Z,14.20
2017-09-16T02:41:27.848Z,17.40
2017-09-16T02:42:27.878Z,17.30
2017-09-16T02:43:27.838Z,17.70
2017-09-16T02:44:27.831Z,17.00
2017-09-16T02:45:27.827Z,16.50
2017-09-16T02:46:27.821Z,15.50
2017-09-16T02:47:27.814Z,15.00
2017-09-16T02:48:27.811Z,15.50
2017-09-16T02:49:27.806Z,15.70
2017-09-16T02:50:27.798Z,17.00
2017-09-16T02:51:27.793Z,18.20
2017-09-16T02:52:27.787Z,20.10
2017-09-16T02:53:27.784Z,18.20
2017-09-16T02:54:27.776Z,18.10
2017-09-16T02:55:27.768Z,16.60
2017-09-16T02:56:27.765Z,15.90
2017-09-16T02:57:27.760Z,16.20
2017-09-16T02:58:27.752Z,19.30
2017-09-16T02:59:27.757Z,14.10
2017-09-16T03:00:27.741Z,13.90
2017-09-16T03:01:27.734Z,14.20
2017-09-16T03:02:27.729Z,12.50
2017-09-16T03:03:27.723Z,16.00
2017-09-16T03:04:27.718Z,15.20
2017-09-16T03:05:27.713Z,18.30
2017-09-16T03:06:27.707Z,13.50
2017-09-16T03:07:27.701Z,18.80
2017-09-16T03:08:27.693Z,13.70
2017-09-16T03:09:27.688Z,19.40
2017-09-16T03:10:27.684Z,17.50
2017-09-16T03:11:27.680Z,16.90
2017-09-16T03:12:27.671Z,14.80
2017-09-16T03:13:27.666Z,18.30
2017-09-16T03:14:27.668Z,16.30
2017-09-16T03:15:27.654Z,15.50
2017-09-16T03:16:27.648Z,14.90
2017-09-16T03:17:27.643Z,18.00
2017-09-16T03:18:27.637Z,17.00
2017-09-16T03:19:27.631Z,19.10
2017-09-16T03:20:27.626Z,17.70
2017-09-16T03:21:27.620Z,15.00
2017-09-16T03:22:27.614Z,12.40
2017-09-16T03:23:27.609Z,16.10
2017-09-16T03:24:27.601Z,14.70
2017-09-16T03:25:27.596Z,16.00
2017-09-16T03:26:27.590Z,15.30
2017-09-16T03:27:27.584Z,16.20
2017-09-16T03:28:27.579Z,15.40
2017-09-16T03:29:27.574Z,15.60
2017-09-16T03:30:27.570Z,16.00
2017-09-16T03:31:27.569Z,15.60
2017-09-16T03:32:27.555Z,16.10
2017-09-16T03:33:27.552Z,14.70
2017-09-16T03:34:27.545Z,14.50
2017-09-16T03:35:27.538Z,14.40
2017-09-16T03:36:27.533Z,14.60
2017-09-16T03:37:27.528Z,15.00
2017-09-16T03:38:27.522Z,17.10
2017-09-16T03:39:27.516Z,16.20
2017-09-16T03:40:27.511Z,16.60
2017-09-16T03:41:27.504Z,18.40
2017-09-16T03:42:27.500Z,17.00
2017-09-16T03:43:27.493Z,17.00
2017-09-16T03:44:27.487Z,15.20
2017-09-16T03:45:27.482Z,16.40
2017-09-16T03:46:27.476Z,16.30
2017-09-16T03:47:27.470Z,14.60
2017-09-16T03:48:27.463Z,15.60
2017-09-16T03:49:27.459Z,17.10
2017-09-16T03:50:27.455Z,16.50
2017-09-16T03:51:27.445Z,15.80
2017-09-16T03:52:27.443Z,16.60
2017-09-16T03:53:27.435Z,16.60
2017-09-16T03:54:27.430Z,17.90
2017-09-16T03:55:27.424Z,17.60
2017-09-16T03:56:27.417Z,19.20
2017-09-16T03:57:27.411Z,15.70
2017-09-16T03:58:27.407Z,16.70
2017-09-16T03:59:27.399Z,18.10
2017-09-16T04:00:27.395Z,14.00
2017-09-16T04:01:27.389Z,13.70
2017-09-16T04:02:27.382Z,14.90
2017-09-16T04:03:27.377Z,15.30
2017-09-16T04:04:27.370Z,20.60
2017-09-16T04:05:27.365Z,16.60
2017-09-16T04:06:27.360Z,16.30
2017-09-16T04:07:27.352Z,18.80
2017-09-16T04:08:27.348Z,19.20
2017-09-16T04:09:27.343Z,15.80
2017-09-16T04:10:27.336Z,15.60
2017-09-16T04:11:27.330Z,14.50
2017-09-16T04:12:27.323Z,13.80
2017-09-16T04:13:27.318Z,16.00
2017-09-16T04:14:27.313Z,15.20
2017-09-16T04:15:27.305Z,15.40
2017-09-16T04:16:27.301Z,14.00
2017-09-16T04:17:27.297Z,18.40
2017-09-16T04:18:27.290Z,19.60
2017-09-16T04:19:27.284Z,18.80
2017-09-16T04:20:27.277Z,18.00
2017-09-16T04:21:27.275Z,16.70
2017-09-16T04:22:27.266Z,16.80
2017-09-16T04:23:27.260Z,19.10
2017-09-16T04:24:27.254Z,20.90
2017-09-16T04:25:27.251Z,19.10
2017-09-16T04:26:27.243Z,19.30
2017-09-16T04:27:27.236Z,20.40
2017-09-16T04:28:27.230Z,19.10
2017-09-16T04:29:27.224Z,18.60
2017-09-16T04:30:27.219Z,16.70
2017-09-16T04:31:27.212Z,20.90
2017-09-16T04:32:27.210Z,19.40
2017-09-16T04:33:27.201Z,24.00
2017-09-16T04:34:27.195Z,21.50
2017-09-16T04:35:27.188Z,20.20
2017-09-16T04:36:27.183Z,21.30
2017-09-16T04:37:27.176Z,18.80
2017-09-16T04:38:27.172Z,15.40
2017-09-16T04:39:27.163Z,18.60
2017-09-16T04:40:27.160Z,19.60
2017-09-16T04:41:27.153Z,18.60
2017-09-16T04:42:27.147Z,19.20
2017-09-16T04:43:27.141Z,18.90
2017-09-16T04:44:27.133Z,19.30
2017-09-16T04:45:27.127Z,15.50
2017-09-16T04:46:27.123Z,18.30
2017-09-16T04:47:27.116Z,15.90
2017-09-16T04:48:27.110Z,16.50
2017-09-16T04:49:27.105Z,18.60
2017-09-16T04:50:27.099Z,18.80
2017-09-16T04:51:27.093Z,15.20
2017-09-16T04:52:27.086Z,17.70
2017-09-16T04:53:27.081Z,18.30
2017-09-16T04:54:27.075Z,17.00
2017-09-16T04:55:27.068Z,16.10
2017-09-16T04:56:27.061Z,15.70
2017-09-16T04:57:27.056Z,19.10
2017-09-16T04:58:27.055Z,16.40
2017-09-16T04:59:27.043Z,14.80
2017-09-16T05:00:27.039Z,16.30
2017-09-16T05:01:27.032Z,16.10
2017-09-16T05:02:27.027Z,15.60
2017-09-16T05:03:27.025Z,15.40
2017-09-16T05:04:27.014Z,20.20
2017-09-16T05:05:27.015Z,13.10
2017-09-16T05:06:27.004Z,16.60
2017-09-16T05:07:26.997Z,18.80
2017-09-16T05:08:26.991Z,16.40
2017-09-16T05:09:26.985Z,14.20
2017-09-16T05:10:26.979Z,16.40
2017-09-16T05:11:26.972Z,14.30
2017-09-16T05:12:26.967Z,14.70
2017-09-16T05:13:26.961Z,14.20
2017-09-16T05:14:26.957Z,14.10
2017-09-16T05:15:26.950Z,14.20
2017-09-16T05:16:26.943Z,13.10
2017-09-16T05:17:26.938Z,15.70
2017-09-16T05:18:26.933Z,15.50
2017-09-16T05:19:26.933Z,15.30
2017-09-16T05:20:26.921Z,25.00
2017-09-16T05:21:26.915Z,19.60
2017-09-16T05:22:26.909Z,15.80
2017-09-16T05:23:26.903Z,17.30
2017-09-16T05:24:26.900Z,18.30
2017-09-16T05:25:26.892Z,18.30
2017-09-16T05:26:26.886Z,13.50
2017-09-16T05:27:26.879Z,15.40
2017-09-16T05:28:26.875Z,15.90
2017-09-16T05:29:26.868Z,14.90
2017-09-16T05:30:26.862Z,13.40
2017-09-16T05:31:26.857Z,13.20
2017-09-16T05:32:26.850Z,15.40
2017-09-16T05:33:26.845Z,15.60
2017-09-16T05:34:26.841Z,17.50
2017-09-16T05:35:26.832Z,16.10
2017-09-16T05:36:26.827Z,15.90
2017-09-16T05:37:26.821Z,15.70
2017-09-16T05:38:26.816Z,20.30
2017-09-16T05:39:26.809Z,16.90
2017-09-16T05:40:26.804Z,15.30
2017-09-16T05:41:26.797Z,12.70
2017-09-16T05:42:26.793Z,10.10
2017-09-16T05:43:26.785Z,15.20
2017-09-16T05:44:26.782Z,12.30
2017-09-16T05:45:26.775Z,15.00
2017-09-16T05:46:26.770Z,15.40
2017-09-16T05:47:26.764Z,14.70
2017-09-16T05:48:26.759Z,9.60
2017-09-16T05:49:26.754Z,13.60
2017-09-16T05:50:26.748Z,11.10
2017-09-16T05:51:26.743Z,13.00
2017-09-16T05:52:26.738Z,14.10
2017-09-16T05:53:26.734Z,15.80
2017-09-16T05:54:26.734Z,8.40
2017-09-16T05:55:26.724Z,10.50
2017-09-16T05:56:26.719Z,10.20
2017-09-16T05:57:26.715Z,10.90
2017-09-16T05:58:26.711Z,12.70
2017-09-16T05:59:26.706Z,9.80
2017-09-16T06:00:26.701Z,12.30
2017-09-16T06:01:26.700Z,12.80
2017-09-16T06:02:26.694Z,10.40
2017-09-16T06:03:26.689Z,13.40
2017-09-16T06:04:26.685Z,10.40
2017-09-16T06:05:26.683Z,8.80
2017-09-16T06:06:26.679Z,18.50
2017-09-16T06:07:26.676Z,14.50
2017-09-16T06:08:26.673Z,11.40
2017-09-16T06:09:26.669Z,11.00
2017-09-16T06:10:26.667Z,9.70
2017-09-16T06:11:26.664Z,8.80
2017-09-16T06:12:26.660Z,7.30
2017-09-16T06:13:26.660Z,8.40
2017-09-16T06:14:26.657Z,9.30
2017-09-16T06:15:26.662Z,10.60
2017-09-16T06:16:26.653Z,10.30
2017-09-16T06:17:26.652Z,11.90
2017-09-16T06:18:26.651Z,8.40
2017-09-16T06:19:26.648Z,10.30
2017-09-16T06:20:26.648Z,8.40
2017-09-16T06:21:26.647Z,7.20
2017-09-16T06:22:26.646Z,10.00
2017-09-16T06:23:26.645Z,10.70
2017-09-16T06:24:26.645Z,8.90
2017-09-16T06:25:26.645Z,6.70
2017-09-16T06:26:26.645Z,8.50
2017-09-16T06:27:26.643Z,10.10
2017-09-16T06:28:26.645Z,8.50
2017-09-16T06:29:26.643Z,7.90
2017-09-16T06:30:26.645Z,6.60
2017-09-16T06:31:26.644Z,9.10
2017-09-16T06:32:26.644Z,8.50
2017-09-16T06:33:26.646Z,8.40
2017-09-16T06:34:26.647Z,9.00
2017-09-16T06:35:26.647Z,11.00
2017-09-16T06:36:26.647Z,11.40
2017-09-16T06:37:26.649Z,10.40
2017-09-16T06:38:26.651Z,10.90
2017-09-16T06:39:26.648Z,11.20
2017-09-16T06:40:26.651Z,9.10
2017-09-16T06:41:26.652Z,7.30
2017-09-16T06:42:26.654Z,9.50
2017-09-16T06:43:26.654Z,8.60
2017-09-16T06:44:26.656Z,8.90
2017-09-16T06:45:26.656Z,13.50
2017-09-16T06:46:26.660Z,8.30
2017-09-16T06:47:26.659Z,8.30
2017-09-16T06:48:26.660Z,7.30
2017-09-16T06:49:26.665Z,6.90
2017-09-16T06:50:26.667Z,9.00
2017-09-16T06:51:26.668Z,6.90
2017-09-16T06:52:26.670Z,8.40
2017-09-16T06:53:26.675Z,8.10
2017-09-16T06:54:26.677Z,7.90
2017-09-16T06:55:26.678Z,8.50
2017-09-16T06:56:26.684Z,6.20
2017-09-16T06:57:26.687Z,6.40
2017-09-16T06:58:26.692Z,5.60
2017-09-16T06:59:26.693Z,7.50
2017-09-16T07:00:26.696Z,8.70
2017-09-16T07:01:26.701Z,10.70
2017-09-16T07:02:26.705Z,9.10
2017-09-16T07:03:26.709Z,7.80
2017-09-16T07:04:26.713Z,9.60
2017-09-16T07:05:26.718Z,7.30
2017-09-16T07:06:26.723Z,7.70
2017-09-16T07:07:26.727Z,9.70
2017-09-16T07:08:26.733Z,10.10
2017-09-16T07:09:26.737Z,8.40
2017-09-16T07:10:26.743Z,10.20
2017-09-16T07:11:26.749Z,8.00
2017-09-16T07:12:26.753Z,6.90
2017-09-16T07:13:26.759Z,7.10
2017-09-16T07:14:26.766Z,11.70
2017-09-16T07:15:26.770Z,8.60
2017-09-16T07:16:26.776Z,9.40
2017-09-16T07:17:26.782Z,6.20
2017-09-16T07:18:26.786Z,10.50
2017-09-16T07:19:26.793Z,9.40
2017-09-16T07:20:26.801Z,8.40
2017-09-16T07:21:26.806Z,9.40
2017-09-16T07:22:26.812Z,10.10
2017-09-16T07:23:26.817Z,8.90
2017-09-16T07:24:26.824Z,9.20
2017-09-16T07:25:26.830Z,8.60
2017-09-16T07:26:26.837Z,7.50
2017-09-16T07:27:26.843Z,6.90
2017-09-16T07:28:26.849Z,9.50
2017-09-16T07:29:26.855Z,7.10
2017-09-16T07:30:26.862Z,8.20
2017-09-16T07:31:26.869Z,8.60
2017-09-16T07:32:26.875Z,8.30
2017-09-16T07:33:26.881Z,10.20
2017-09-16T07:34:26.889Z,11.20
2017-09-16T07:35:26.895Z,11.20
2017-09-16T07:36:26.902Z,8.00
2017-09-16T07:37:26.909Z,9.20
2017-09-16T07:38:26.916Z,9.00
2017-09-16T07:39:26.922Z,9.40
2017-09-16T07:40:26.930Z,9.40
2017-09-16T07:41:26.936Z,8.30
2017-09-16T07:42:26.944Z,7.30
2017-09-16T07:43:26.951Z,6.90
2017-09-16T07:44:26.959Z,10.20
2017-09-16T07:45:26.967Z,6.80
2017-09-16T07:46:26.974Z,7.70
2017-09-16T07:47:26.980Z,7.80
2017-09-16T07:48:26.987Z,6.80
2017-09-16T07:49:26.997Z,8.00
2017-09-16T07:50:27.005Z,8.30
2017-09-16T07:51:27.012Z,8.70
2017-09-16T07:52:27.019Z,9.20
2017-09-16T07:53:27.028Z,8.20
2017-09-16T07:54:27.037Z,7.60
2017-09-16T07:55:27.044Z,8.40
2017-09-16T07:56:27.051Z,7.20
2017-09-16T07:57:27.061Z,8.30
2017-09-16T07:58:27.071Z,7.70
2017-09-16T07:59:27.082Z,5.30
2017-09-16T08:00:27.090Z,8.50
2017-09-16T08:01:27.097Z,7.40
2017-09-16T08:02:27.107Z,8.60
2017-09-16T08:03:27.115Z,7.00
2017-09-16T08:04:27.124Z,7.40
2017-09-16T08:05:27.135Z,9.80
2017-09-16T08:06:27.144Z,9.50
2017-09-16T08:07:27.170Z,6.80
2017-09-16T08:08:27.166Z,9.90
2017-09-16T08:09:27.172Z,9.60
2017-09-16T08:10:27.183Z,12.00
2017-09-16T08:11:27.190Z,10.00
2017-09-16T08:12:27.209Z,11.80
2017-09-16T08:13:27.208Z,15.50
2017-09-16T08:14:27.215Z,11.70
2017-09-16T08:15:27.224Z,9.90
2017-09-16T08:16:27.230Z,9.70
2017-09-16T08:17:27.239Z,10.90
2017-09-16T08:18:27.247Z,14.40
2017-09-16T08:19:27.254Z,12.00
2017-09-16T08:20:27.262Z,11.30
2017-09-16T08:21:27.269Z,9.30
2017-09-16T08:22:27.277Z,9.50
2017-09-16T08:23:27.285Z,10.40
2017-09-16T08:24:27.316Z,9.70
2017-09-16T08:25:27.300Z,9.00
2017-09-16T08:26:27.310Z,12.40
2017-09-16T08:27:27.316Z,9.50
2017-09-16T08:28:27.325Z,8.00
2017-09-16T08:29:27.333Z,12.50
2017-09-16T08:30:27.339Z,9.50
2017-09-16T08:31:27.347Z,12.30
2017-09-16T08:32:27.360Z,15.50
2017-09-16T08:33:27.363Z,10.90
2017-09-16T08:34:27.370Z,10.20
2017-09-16T08:35:27.384Z,9.40
2017-09-16T08:36:27.388Z,9.50
2017-09-16T08:37:27.481Z,14.50
2017-09-16T08:38:27.483Z,11.40
2017-09-16T08:39:27.408Z,8.20
2017-09-16T08:40:27.418Z,12.10
2017-09-16T08:41:27.426Z,11.20
2017-09-16T08:42:27.438Z,7.80
2017-09-16T08:43:27.440Z,9.70
2017-09-16T08:44:27.450Z,8.70
2017-09-16T08:45:27.463Z,8.40
2017-09-16T08:46:27.472Z,8.70
2017-09-16T08:47:27.477Z,11.60
2017-09-16T08:48:27.488Z,8.90
2017-09-16T08:49:27.502Z,9.00
2017-09-16T08:50:27.510Z,8.70
2017-09-16T08:51:27.522Z,9.00
2017-09-16T08:52:27.528Z,8.70
2017-09-16T08:53:27.541Z,6.40
2017-09-16T08:54:27.551Z,8.60
2017-09-16T08:55:27.562Z,9.20
2017-09-16T08:56:27.579Z,7.90
2017-09-16T08:57:27.585Z,8.60
2017-09-16T08:58:27.598Z,8.20
2017-09-16T08:59:27.609Z,10.70
2017-09-16T09:00:27.621Z,8.30
2017-09-16T09:01:27.635Z,6.90
2017-09-16T09:02:27.646Z,8.40
2017-09-16T09:03:27.659Z,9.40
2017-09-16T09:04:27.673Z,8.10
2017-09-16T09:05:27.684Z,6.90
2017-09-16T09:06:27.696Z,10.40
2017-09-16T09:07:27.709Z,7.60
2017-09-16T09:08:27.721Z,9.00
2017-09-16T09:09:27.735Z,8.70
2017-09-16T09:10:27.749Z,10.60
2017-09-16T09:11:27.760Z,6.40
2017-09-16T09:12:27.773Z,6.70
2017-09-16T09:13:27.786Z,7.60
2017-09-16T09:14:27.800Z,7.60
2017-09-16T09:15:27.812Z,7.50
2017-09-16T09:16:27.826Z,9.60
2017-09-16T09:17:27.840Z,6.10
2017-09-16T09:18:27.851Z,7.80
2017-09-16T09:19:27.865Z,9.90
2017-09-16T09:20:27.891Z,9.00
2017-09-16T09:21:27.891Z,6.70
2017-09-16T09:22:27.904Z,9.10
2017-09-16T09:23:27.916Z,7.60
2017-09-16T09:24:27.929Z,7.70
2017-09-16T09:25:27.942Z,6.40
2017-09-16T09:26:27.956Z,6.50
2017-09-16T09:27:27.967Z,8.40
2017-09-16T09:28:27.979Z,7.00
2017-09-16T09:29:27.992Z,7.80
2017-09-16T09:30:28.007Z,6.60
2017-09-16T09:31:28.017Z,12.10
2017-09-16T09:32:28.030Z,5.10
2017-09-16T09:33:28.043Z,5.80
2017-09-16T09:34:28.057Z,8.00
2017-09-16T09:35:28.065Z,8.60
2017-09-16T09:36:28.077Z,9.10
2017-09-16T09:37:28.089Z,9.70
2017-09-16T09:38:28.101Z,7.50
2017-09-16T09:39:28.110Z,6.10
2017-09-16T09:40:28.121Z,8.10
2017-09-16T09:41:28.131Z,5.60
2017-09-16T09:42:28.142Z,9.10
2017-09-16T09:43:28.152Z,7.30
2017-09-16T09:44:28.162Z,7.80
2017-09-16T09:45:28.172Z,7.20
2017-09-16T09:46:28.183Z,4.60
2017-09-16T09:47:28.192Z,7.40
2017-09-16T09:48:28.203Z,5.30
2017-09-16T09:49:28.220Z,4.30
2017-09-16T09:50:28.225Z,6.70
2017-09-16T09:51:28.235Z,6.00
2017-09-16T09:52:28.245Z,6.20
2017-09-16T09:53:28.257Z,5.80
2017-09-16T09:54:28.268Z,4.30
2017-09-16T09:55:28.278Z,4.30
2017-09-16T09:56:28.293Z,4.30
2017-09-16T09:57:28.306Z,4.90
2017-09-16T09:58:28.318Z,4.60
2017-09-16T09:59:28.328Z,5.10
2017-09-16T10:00:28.342Z,5.30
2017-09-16T10:01:28.356Z,4.30
2017-09-16T10:02:28.368Z,7.10
2017-09-16T10:03:28.380Z,7.10
2017-09-16T10:04:28.392Z,6.70
2017-09-16T10:05:28.562Z,5.70
2017-09-16T10:06:28.416Z,5.60
2017-09-16T10:07:28.426Z,6.70
2017-09-16T10:08:28.438Z,4.90
2017-09-16T10:09:28.448Z,5.70
2017-09-16T10:10:28.460Z,4.50
2017-09-16T10:11:28.467Z,5.80
2017-09-16T10:12:28.477Z,5.10
2017-09-16T10:13:28.486Z,7.50
2017-09-16T10:14:28.496Z,4.20
2017-09-16T10:15:28.504Z,7.20
2017-09-16T10:16:28.520Z,5.80
2017-09-16T10:17:28.521Z,7.90
2017-09-16T10:18:28.539Z,6.50
2017-09-16T10:19:28.536Z,5.90
2017-09-16T10:20:28.545Z,7.30
2017-09-16T10:21:28.553Z,5.30
2017-09-16T10:22:28.562Z,5.70
2017-09-16T10:24:28.579Z,6.70
2017-09-16T10:25:28.587Z,7.10
2017-09-16T10:26:28.595Z,6.00
2017-09-16T10:27:28.604Z,4.10
2017-09-16T10:28:28.614Z,3.30
2017-09-16T10:29:28.622Z,4.10
2017-09-16T10:30:28.632Z,5.70
2017-09-16T10:31:28.642Z,5.40
2017-09-16T10:32:28.651Z,5.80
2017-09-16T10:33:28.662Z,4.70
2017-09-16T10:34:28.673Z,5.60
2017-09-16T10:35:28.682Z,6.70
2017-09-16T10:36:28.694Z,4.20
2017-09-16T10:37:28.711Z,5.40
2017-09-16T10:38:28.718Z,5.60
2017-09-16T10:39:28.728Z,3.20
2017-09-16T10:40:28.739Z,4.50
2017-09-16T10:41:28.752Z,4.70
2017-09-16T10:42:28.762Z,6.50
2017-09-16T10:43:28.773Z,5.20
2017-09-16T10:44:28.785Z,5.40
2017-09-16T10:45:28.800Z,5.20
2017-09-16T10:46:28.805Z,6.10
2017-09-16T10:47:28.814Z,5.20
2017-09-16T10:48:28.825Z,5.20
2017-09-16T10:49:28.835Z,5.70
2017-09-16T10:50:28.846Z,6.60
2017-09-16T10:51:28.851Z,4.80
2017-09-16T10:52:28.865Z,6.00
2017-09-16T10:53:28.873Z,4.70
2017-09-16T10:54:28.877Z,7.00
2017-09-16T10:55:28.884Z,5.50
2017-09-16T10:56:28.890Z,4.30
2017-09-16T10:57:28.898Z,5.30
2017-09-16T10:58:28.906Z,6.80
2017-09-16T10:59:28.912Z,7.30
2017-09-16T11:00:28.917Z,5.70
2017-09-16T11:01:28.926Z,5.60
2017-09-16T11:02:28.931Z,5.50
2017-09-16T11:03:28.936Z,7.90
2017-09-16T11:04:28.941Z,6.00
2017-09-16T11:05:28.947Z,4.70
2017-09-16T11:06:28.954Z,4.00
2017-09-16T11:07:28.967Z,6.20
2017-09-16T11:08:28.967Z,5.50
2017-09-16T11:09:28.974Z,4.30
2017-09-16T11:10:28.980Z,4.50
2017-09-16T11:11:28.983Z,4.30
2017-09-16T11:12:28.991Z,5.10
2017-09-16T11:13:28.997Z,5.20
2017-09-16T11:14:29.003Z,6.70
2017-09-16T11:15:29.010Z,5.20
2017-09-16T11:16:29.016Z,5.50
2017-09-16T11:17:29.024Z,5.20
2017-09-16T11:18:29.026Z,4.70
2017-09-16T11:19:29.033Z,4.50
2017-09-16T11:20:29.037Z,6.60
2017-09-16T11:21:29.043Z,7.10
2017-09-16T11:22:29.050Z,5.00
2017-09-16T11:23:29.052Z,5.00
2017-09-16T11:24:29.060Z,3.70
2017-09-16T11:25:29.065Z,7.30
2017-09-16T11:26:29.072Z,3.60
2017-09-16T11:27:29.074Z,4.40
2017-09-16T11:28:29.079Z,5.90
2017-09-16T11:29:29.084Z,3.00
2017-09-16T11:30:29.092Z,4.80
2017-09-16T11:31:29.093Z,5.10
2017-09-16T11:32:29.098Z,4.50
2017-09-16T11:33:29.102Z,4.90
2017-09-16T11:34:29.107Z,5.80
2017-09-16T11:35:29.111Z,4.50
2017-09-16T11:36:29.114Z,7.00
2017-09-16T11:37:29.121Z,5.10
2017-09-16T11:38:29.125Z,4.10
2017-09-16T11:39:29.128Z,5.30
2017-09-16T11:40:29.133Z,6.60
2017-09-16T11:41:29.163Z,6.70
2017-09-16T11:42:29.141Z,6.00
2017-09-16T11:43:29.147Z,4.30
2017-09-16T11:44:29.148Z,3.80
2017-09-16T11:45:29.152Z,8.40
2017-09-16T11:46:29.158Z,7.70
2017-09-16T11:47:29.161Z,4.90
2017-09-16T11:48:29.166Z,5.50
2017-09-16T11:49:29.169Z,5.80
2017-09-16T11:50:29.174Z,5.90
2017-09-16T11:51:29.177Z,4.60
2017-09-16T11:52:29.181Z,4.50
2017-09-16T11:53:29.185Z,5.00
2017-09-16T11:54:29.189Z,4.00
2017-09-16T11:55:29.192Z,3.60
2017-09-16T11:56:29.196Z,6.40
2017-09-16T11:57:29.201Z,4.90
2017-09-16T11:58:29.205Z,6.20
2017-09-16T11:59:29.207Z,2.50
2017-09-16T12:00:29.212Z,3.10
2017-09-16T12:01:29.215Z,4.50
2017-09-16T12:02:29.219Z,5.40
2017-09-16T12:03:29.223Z,4.00
2017-09-16T12:04:29.226Z,5.40
2017-09-16T12:05:29.231Z,4.80
2017-09-16T12:06:29.234Z,5.40
2017-09-16T12:07:29.237Z,2.50
2017-09-16T12:08:29.243Z,3.70
2017-09-16T12:09:29.246Z,3.30
2017-09-16T12:10:29.250Z,3.60
2017-09-16T12:11:29.253Z,3.90
2017-09-16T12:12:29.256Z,2.80
2017-09-16T12:13:29.261Z,3.00
2017-09-16T12:14:29.264Z,3.00
2017-09-16T12:15:29.267Z,3.40
2017-09-16T12:16:29.272Z,4.40
2017-09-16T12:17:29.275Z,3.90
2017-09-16T12:18:29.280Z,4.50
2017-09-16T12:19:29.283Z,2.50
2017-09-16T12:20:29.288Z,3.80
2017-09-16T12:21:29.291Z,4.70
2017-09-16T12:22:29.295Z,3.10
2017-09-16T12:23:29.302Z,3.80
2017-09-16T12:24:29.305Z,3.80
2017-09-16T12:25:29.306Z,3.50
2017-09-16T12:26:29.309Z,5.20
2017-09-16T12:27:29.313Z,4.10
2017-09-16T12:28:29.317Z,4.80
2017-09-16T12:29:29.321Z,3.20
2017-09-16T12:30:29.325Z,4.80
2017-09-16T12:31:29.328Z,5.00
2017-09-16T12:32:29.332Z,4.20
2017-09-16T12:33:29.339Z,5.00
2017-09-16T12:34:29.340Z,3.40
2017-09-16T12:35:29.342Z,4.40
2017-09-16T12:36:29.347Z,4.50
2017-09-16T12:37:29.350Z,4.40
2017-09-16T12:38:29.354Z,3.90
2017-09-16T12:39:29.357Z,4.80
2017-09-16T12:40:29.362Z,4.90
2017-09-16T12:41:29.367Z,6.60
2017-09-16T12:42:29.369Z,4.20
2017-09-16T12:43:29.373Z,4.40
2017-09-16T12:44:29.377Z,4.10
2017-09-16T12:45:29.380Z,4.30
2017-09-16T12:46:29.384Z,5.40
2017-09-16T12:47:29.387Z,4.60
2017-09-16T12:48:29.391Z,3.50
2017-09-16T12:49:29.394Z,6.40
2017-09-16T12:50:29.398Z,3.20
2017-09-16T12:51:29.402Z,6.00
2017-09-16T12:52:29.405Z,4.30
2017-09-16T12:53:29.409Z,3.60
2017-09-16T12:54:29.412Z,4.90
2017-09-16T12:55:29.414Z,4.20
2017-09-16T12:56:29.419Z,4.20
2017-09-16T12:57:29.420Z,3.20
2017-09-16T12:58:29.425Z,3.90
2017-09-16T12:59:29.427Z,5.60
2017-09-16T13:00:29.435Z,6.20
2017-09-16T13:01:29.434Z,4.30
2017-09-16T13:02:29.437Z,3.20
2017-09-16T13:03:29.439Z,2.40
2017-09-16T13:04:29.443Z,4.20
2017-09-16T13:05:29.446Z,5.70